sensor_id;sensor_type;location;lat;lon;timestamp;P1;durP1;ratioP1;P2;durP2;ratioP2
44766;SDS011;30487;48.716;9.272;2023-11-21T00:01:53;5.10;;;1.38;;
44766;SDS011;30487;48.716;9.272;2023-11-21T00:04:19;4.55;;;1.50;;
44766;SDS011;30487;48.716;9.272;2023-11-21T00:06:46;6.60;;;1.52;;
44766;SDS011;30487;48.716;9.272;2023-11-21T00:09:12;6.30;;;1.65;;
44766;SDS011;30487;48.716;9.272;2023-11-21T00:11:40;5.25;;;1.33;;
44766;SDS011;30487;48.716;9.272;2023-11-21T00:14:06;7.43;;;1.42;;
44766;SDS011;30487;48.716;9.272;2023-11-21T00:16:33;6.28;;;1.40;;
44766;SDS011;30487;48.716;9.272;2023-11-21T00:18:59;5.53;;;1.10;;
44766;SDS011;30487;48.716;9.272;2023-11-21T00:21:24;5.97;;;1.55;;
44766;SDS011;30487;48.716;9.272;2023-11-21T00:23:50;5.50;;;1.42;;
44766;SDS011;30487;48.716;9.272;2023-11-21T00:26:16;6.78;;;1.48;;
44766;SDS011;30487;48.716;9.272;2023-11-21T00:28:42;4.90;;;1.20;;
44766;SDS011;30487;48.716;9.272;2023-11-21T00:31:07;3.30;;;1.20;;
44766;SDS011;30487;48.716;9.272;2023-11-21T00:33:33;5.30;;;1.60;;
44766;SDS011;30487;48.716;9.272;2023-11-21T00:35:58;6.47;;;1.42;;
44766;SDS011;30487;48.716;9.272;2023-11-21T00:38:25;7.35;;;1.40;;
44766;SDS011;30487;48.716;9.272;2023-11-21T00:40:52;4.65;;;1.40;;
44766;SDS011;30487;48.716;9.272;2023-11-21T00:43:20;6.07;;;1.38;;
44766;SDS011;30487;48.716;9.272;2023-11-21T00:45:49;4.32;;;1.20;;
44766;SDS011;30487;48.716;9.272;2023-11-21T00:48:16;6.55;;;1.30;;
44766;SDS011;30487;48.716;9.272;2023-11-21T00:50:42;4.63;;;1.30;;
44766;SDS011;30487;48.716;9.272;2023-11-21T00:53:08;5.45;;;1.15;;
44766;SDS011;30487;48.716;9.272;2023-11-21T00:55:34;7.15;;;1.30;;
44766;SDS011;30487;48.716;9.272;2023-11-21T00:58:00;5.40;;;1.33;;
44766;SDS011;30487;48.716;9.272;2023-11-21T01:00:28;4.50;;;1.20;;
44766;SDS011;30487;48.716;9.272;2023-11-21T01:02:53;5.70;;;1.00;;
44766;SDS011;30487;48.716;9.272;2023-11-21T01:05:19;3.90;;;1.20;;
44766;SDS011;30487;48.716;9.272;2023-11-21T01:07:44;6.18;;;1.33;;
44766;SDS011;30487;48.716;9.272;2023-11-21T01:10:10;5.30;;;1.05;;
44766;SDS011;30487;48.716;9.272;2023-11-21T01:12:36;4.47;;;1.05;;
44766;SDS011;30487;48.716;9.272;2023-11-21T01:15:03;5.35;;;1.23;;
44766;SDS011;30487;48.716;9.272;2023-11-21T01:17:32;3.88;;;0.90;;
44766;SDS011;30487;48.716;9.272;2023-11-21T01:19:59;3.80;;;1.00;;
44766;SDS011;30487;48.716;9.272;2023-11-21T01:22:25;4.90;;;0.93;;
44766;SDS011;30487;48.716;9.272;2023-11-21T01:24:51;2.83;;;0.90;;
44766;SDS011;30487;48.716;9.272;2023-11-21T01:27:18;4.10;;;1.02;;
44766;SDS011;30487;48.716;9.272;2023-11-21T01:29:44;3.17;;;0.98;;
44766;SDS011;30487;48.716;9.272;2023-11-21T01:32:09;5.70;;;1.20;;
44766;SDS011;30487;48.716;9.272;2023-11-21T01:34:35;3.70;;;0.90;;
44766;SDS011;30487;48.716;9.272;2023-11-21T01:37:01;5.25;;;0.80;;
44766;SDS011;30487;48.716;9.272;2023-11-21T01:39:29;4.32;;;0.82;;
44766;SDS011;30487;48.716;9.272;2023-11-21T01:41:55;5.65;;;0.82;;
44766;SDS011;30487;48.716;9.272;2023-11-21T01:44:23;4.15;;;0.90;;
44766;SDS011;30487;48.716;9.272;2023-11-21T01:46:49;2.60;;;0.90;;
44766;SDS011;30487;48.716;9.272;2023-11-21T01:49:15;3.05;;;0.85;;
44766;SDS011;30487;48.716;9.272;2023-11-21T01:51:43;1.92;;;0.60;;
44766;SDS011;30487;48.716;9.272;2023-11-21T01:54:12;3.65;;;0.82;;
44766;SDS011;30487;48.716;9.272;2023-11-21T01:56:37;4.45;;;0.80;;
44766;SDS011;30487;48.716;9.272;2023-11-21T01:59:04;4.13;;;1.10;;
44766;SDS011;30487;48.716;9.272;2023-11-21T02:01:32;4.35;;;0.82;;
44766;SDS011;30487;48.716;9.272;2023-11-21T02:03:58;2.53;;;0.80;;
44766;SDS011;30487;48.716;9.272;2023-11-21T02:06:23;4.28;;;0.82;;
44766;SDS011;30487;48.716;9.272;2023-11-21T02:08:49;4.03;;;0.85;;
44766;SDS011;30487;48.716;9.272;2023-11-21T02:11:15;3.30;;;0.88;;
44766;SDS011;30487;48.716;9.272;2023-11-21T02:13:41;4.57;;;0.80;;
44766;SDS011;30487;48.716;9.272;2023-11-21T02:16:10;5.13;;;1.10;;
44766;SDS011;30487;48.716;9.272;2023-11-21T02:18:37;5.63;;;0.85;;
44766;SDS011;30487;48.716;9.272;2023-11-21T02:21:04;4.38;;;0.70;;
44766;SDS011;30487;48.716;9.272;2023-11-21T02:23:30;2.92;;;0.85;;
44766;SDS011;30487;48.716;9.272;2023-11-21T02:25:55;4.30;;;0.82;;
44766;SDS011;30487;48.716;9.272;2023-11-21T02:28:21;3.47;;;0.80;;
44766;SDS011;30487;48.716;9.272;2023-11-21T02:30:51;2.38;;;0.60;;
44766;SDS011;30487;48.716;9.272;2023-11-21T02:33:21;2.10;;;0.60;;
44766;SDS011;30487;48.716;9.272;2023-11-21T02:35:46;2.38;;;0.80;;
44766;SDS011;30487;48.716;9.272;2023-11-21T02:38:12;1.65;;;0.70;;
44766;SDS011;30487;48.716;9.272;2023-11-21T02:40:38;1.70;;;0.70;;
44766;SDS011;30487;48.716;9.272;2023-11-21T02:43:04;2.08;;;0.65;;
44766;SDS011;30487;48.716;9.272;2023-11-21T02:45:30;3.50;;;0.98;;
44766;SDS011;30487;48.716;9.272;2023-11-21T02:47:56;1.95;;;0.68;;
44766;SDS011;30487;48.716;9.272;2023-11-21T02:50:22;2.75;;;0.73;;
44766;SDS011;30487;48.716;9.272;2023-11-21T02:52:48;3.53;;;0.77;;
44766;SDS011;30487;48.716;9.272;2023-11-21T02:55:14;2.58;;;0.73;;
44766;SDS011;30487;48.716;9.272;2023-11-21T02:57:40;2.70;;;0.50;;
44766;SDS011;30487;48.716;9.272;2023-11-21T03:00:05;4.15;;;0.73;;
44766;SDS011;30487;48.716;9.272;2023-11-21T03:02:35;1.63;;;0.70;;
44766;SDS011;30487;48.716;9.272;2023-11-21T03:05:03;3.10;;;0.63;;
44766;SDS011;30487;48.716;9.272;2023-11-21T03:07:30;4.10;;;0.80;;
44766;SDS011;30487;48.716;9.272;2023-11-21T03:09:56;2.85;;;0.60;;
44766;SDS011;30487;48.716;9.272;2023-11-21T03:12:21;2.03;;;0.50;;
44766;SDS011;30487;48.716;9.272;2023-11-21T03:14:47;4.32;;;0.77;;
44766;SDS011;30487;48.716;9.272;2023-11-21T03:17:12;2.55;;;0.70;;
44766;SDS011;30487;48.716;9.272;2023-11-21T03:19:41;4.35;;;0.60;;
44766;SDS011;30487;48.716;9.272;2023-11-21T03:22:06;2.53;;;0.77;;
44766;SDS011;30487;48.716;9.272;2023-11-21T03:24:33;1.67;;;0.50;;
44766;SDS011;30487;48.716;9.272;2023-11-21T03:26:59;1.52;;;0.60;;
44766;SDS011;30487;48.716;9.272;2023-11-21T03:29:25;3.03;;;0.60;;
44766;SDS011;30487;48.716;9.272;2023-11-21T03:31:51;2.38;;;0.75;;
44766;SDS011;30487;48.716;9.272;2023-11-21T03:34:22;2.65;;;0.75;;
44766;SDS011;30487;48.716;9.272;2023-11-21T03:36:51;1.85;;;0.60;;
44766;SDS011;30487;48.716;9.272;2023-11-21T03:39:18;4.20;;;0.52;;
44766;SDS011;30487;48.716;9.272;2023-11-21T03:41:45;2.15;;;0.47;;
44766;SDS011;30487;48.716;9.272;2023-11-21T03:44:11;2.28;;;0.50;;
44766;SDS011;30487;48.716;9.272;2023-11-21T03:46:36;2.17;;;0.43;;
44766;SDS011;30487;48.716;9.272;2023-11-21T03:49:02;1.85;;;0.50;;
44766;SDS011;30487;48.716;9.272;2023-11-21T03:51:27;2.15;;;0.65;;
44766;SDS011;30487;48.716;9.272;2023-11-21T03:53:53;1.83;;;0.60;;
44766;SDS011;30487;48.716;9.272;2023-11-21T03:56:19;2.85;;;0.80;;
44766;SDS011;30487;48.716;9.272;2023-11-21T03:58:47;1.20;;;0.40;;
44766;SDS011;30487;48.716;9.272;2023-11-21T04:01:19;1.90;;;0.50;;
44766;SDS011;30487;48.716;9.272;2023-11-21T04:03:48;2.15;;;0.50;;
44766;SDS011;30487;48.716;9.272;2023-11-21T04:06:14;1.65;;;0.52;;
44766;SDS011;30487;48.716;9.272;2023-11-21T04:08:39;2.80;;;0.70;;
44766;SDS011;30487;48.716;9.272;2023-11-21T04:11:05;3.42;;;0.70;;
44766;SDS011;30487;48.716;9.272;2023-11-21T04:13:30;1.73;;;0.65;;
44766;SDS011;30487;48.716;9.272;2023-11-21T04:15:56;2.13;;;0.50;;
44766;SDS011;30487;48.716;9.272;2023-11-21T04:18:21;2.10;;;0.50;;
44766;SDS011;30487;48.716;9.272;2023-11-21T04:20:50;2.65;;;0.50;;
44766;SDS011;30487;48.716;9.272;2023-11-21T04:23:16;1.65;;;0.40;;
44766;SDS011;30487;48.716;9.272;2023-11-21T04:25:41;3.38;;;0.60;;
44766;SDS011;30487;48.716;9.272;2023-11-21T04:28:07;1.17;;;0.50;;
44766;SDS011;30487;48.716;9.272;2023-11-21T04:30:33;1.33;;;0.55;;
44766;SDS011;30487;48.716;9.272;2023-11-21T04:32:58;2.08;;;0.40;;
44766;SDS011;30487;48.716;9.272;2023-11-21T04:35:24;2.83;;;0.50;;
44766;SDS011;30487;48.716;9.272;2023-11-21T04:37:49;0.90;;;0.30;;
44766;SDS011;30487;48.716;9.272;2023-11-21T04:40:17;1.17;;;0.30;;
44766;SDS011;30487;48.716;9.272;2023-11-21T04:42:42;0.85;;;0.40;;
44766;SDS011;30487;48.716;9.272;2023-11-21T04:45:08;2.80;;;0.40;;
44766;SDS011;30487;48.716;9.272;2023-11-21T04:47:34;1.70;;;0.50;;
44766;SDS011;30487;48.716;9.272;2023-11-21T04:50:00;2.03;;;0.50;;
44766;SDS011;30487;48.716;9.272;2023-11-21T04:52:28;2.92;;;0.40;;
44766;SDS011;30487;48.716;9.272;2023-11-21T04:54:53;1.15;;;0.30;;
44766;SDS011;30487;48.716;9.272;2023-11-21T04:57:20;1.02;;;0.40;;
44766;SDS011;30487;48.716;9.272;2023-11-21T04:59:46;2.55;;;0.55;;
44766;SDS011;30487;48.716;9.272;2023-11-21T05:02:13;1.67;;;0.50;;
44766;SDS011;30487;48.716;9.272;2023-11-21T05:04:39;2.95;;;0.40;;
44766;SDS011;30487;48.716;9.272;2023-11-21T05:07:04;2.47;;;0.50;;
44766;SDS011;30487;48.716;9.272;2023-11-21T05:09:30;1.63;;;0.38;;
44766;SDS011;30487;48.716;9.272;2023-11-21T05:11:57;0.73;;;0.38;;
44766;SDS011;30487;48.716;9.272;2023-11-21T05:14:23;1.08;;;0.25;;
44766;SDS011;30487;48.716;9.272;2023-11-21T05:16:48;1.92;;;0.50;;
44766;SDS011;30487;48.716;9.272;2023-11-21T05:19:16;1.52;;;0.47;;
44766;SDS011;30487;48.716;9.272;2023-11-21T05:21:41;1.35;;;0.30;;
44766;SDS011;30487;48.716;9.272;2023-11-21T05:24:07;1.30;;;0.30;;
44766;SDS011;30487;48.716;9.272;2023-11-21T05:26:32;1.70;;;0.50;;
44766;SDS011;30487;48.716;9.272;2023-11-21T05:28:58;3.17;;;0.60;;
44766;SDS011;30487;48.716;9.272;2023-11-21T05:31:24;1.42;;;0.50;;
44766;SDS011;30487;48.716;9.272;2023-11-21T05:33:49;1.15;;;0.50;;
44766;SDS011;30487;48.716;9.272;2023-11-21T05:36:15;2.22;;;0.38;;
44766;SDS011;30487;48.716;9.272;2023-11-21T05:38:40;2.45;;;0.40;;
44766;SDS011;30487;48.716;9.272;2023-11-21T05:41:06;1.60;;;0.43;;
44766;SDS011;30487;48.716;9.272;2023-11-21T05:43:33;0.43;;;0.30;;
44766;SDS011;30487;48.716;9.272;2023-11-21T05:46:00;0.68;;;0.30;;
44766;SDS011;30487;48.716;9.272;2023-11-21T05:48:26;1.85;;;0.43;;
44766;SDS011;30487;48.716;9.272;2023-11-21T05:50:51;1.10;;;0.38;;
44766;SDS011;30487;48.716;9.272;2023-11-21T05:53:17;1.35;;;0.40;;
44766;SDS011;30487;48.716;9.272;2023-11-21T05:55:43;1.63;;;0.47;;
44766;SDS011;30487;48.716;9.272;2023-11-21T05:58:08;1.67;;;0.47;;
44766;SDS011;30487;48.716;9.272;2023-11-21T06:00:34;2.47;;;0.40;;
44766;SDS011;30487;48.716;9.272;2023-11-21T06:03:00;1.20;;;0.32;;
44766;SDS011;30487;48.716;9.272;2023-11-21T06:05:26;1.58;;;0.40;;
44766;SDS011;30487;48.716;9.272;2023-11-21T06:07:52;1.00;;;0.40;;
44766;SDS011;30487;48.716;9.272;2023-11-21T06:10:19;1.85;;;0.43;;
44766;SDS011;30487;48.716;9.272;2023-11-21T06:12:46;1.50;;;0.43;;
44766;SDS011;30487;48.716;9.272;2023-11-21T06:15:12;1.98;;;0.32;;
44766;SDS011;30487;48.716;9.272;2023-11-21T06:17:38;1.70;;;0.50;;
44766;SDS011;30487;48.716;9.272;2023-11-21T06:20:05;1.05;;;0.30;;
44766;SDS011;30487;48.716;9.272;2023-11-21T06:22:38;3.67;;;0.57;;
44766;SDS011;30487;48.716;9.272;2023-11-21T06:25:05;1.98;;;0.60;;
44766;SDS011;30487;48.716;9.272;2023-11-21T06:27:33;2.58;;;0.50;;
44766;SDS011;30487;48.716;9.272;2023-11-21T06:30:02;1.63;;;0.38;;
44766;SDS011;30487;48.716;9.272;2023-11-21T06:32:29;1.55;;;0.55;;
44766;SDS011;30487;48.716;9.272;2023-11-21T06:34:55;2.25;;;0.50;;
44766;SDS011;30487;48.716;9.272;2023-11-21T06:37:24;0.80;;;0.30;;
44766;SDS011;30487;48.716;9.272;2023-11-21T06:39:51;1.58;;;0.55;;
44766;SDS011;30487;48.716;9.272;2023-11-21T06:42:18;1.65;;;0.40;;
44766;SDS011;30487;48.716;9.272;2023-11-21T06:44:46;1.30;;;0.47;;
44766;SDS011;30487;48.716;9.272;2023-11-21T06:47:13;1.52;;;0.40;;
44766;SDS011;30487;48.716;9.272;2023-11-21T06:49:39;0.75;;;0.30;;
44766;SDS011;30487;48.716;9.272;2023-11-21T06:52:06;1.15;;;0.35;;
44766;SDS011;30487;48.716;9.272;2023-11-21T06:54:31;1.35;;;0.40;;
44766;SDS011;30487;48.716;9.272;2023-11-21T06:56:57;3.05;;;0.40;;
44766;SDS011;30487;48.716;9.272;2023-11-21T06:59:23;1.15;;;0.30;;
44766;SDS011;30487;48.716;9.272;2023-11-21T07:01:49;1.75;;;0.40;;
44766;SDS011;30487;48.716;9.272;2023-11-21T07:04:15;1.33;;;0.40;;
44766;SDS011;30487;48.716;9.272;2023-11-21T07:06:41;1.83;;;0.43;;
44766;SDS011;30487;48.716;9.272;2023-11-21T07:09:08;2.35;;;0.55;;
44766;SDS011;30487;48.716;9.272;2023-11-21T07:11:34;1.88;;;0.47;;
44766;SDS011;30487;48.716;9.272;2023-11-21T07:14:00;1.75;;;0.30;;
44766;SDS011;30487;48.716;9.272;2023-11-21T07:16:32;0.73;;;0.40;;
44766;SDS011;30487;48.716;9.272;2023-11-21T07:19:03;1.80;;;0.40;;
44766;SDS011;30487;48.716;9.272;2023-11-21T07:21:31;1.15;;;0.45;;
44766;SDS011;30487;48.716;9.272;2023-11-21T07:23:57;1.52;;;0.43;;
44766;SDS011;30487;48.716;9.272;2023-11-21T07:26:23;2.72;;;0.40;;
44766;SDS011;30487;48.716;9.272;2023-11-21T07:28:49;1.83;;;0.50;;
44766;SDS011;30487;48.716;9.272;2023-11-21T07:31:15;1.77;;;0.60;;
44766;SDS011;30487;48.716;9.272;2023-11-21T07:33:40;0.85;;;0.38;;
44766;SDS011;30487;48.716;9.272;2023-11-21T07:36:06;1.67;;;0.50;;
44766;SDS011;30487;48.716;9.272;2023-11-21T07:38:32;3.47;;;0.40;;
44766;SDS011;30487;48.716;9.272;2023-11-21T07:40:58;2.63;;;0.60;;
44766;SDS011;30487;48.716;9.272;2023-11-21T07:43:26;1.02;;;0.40;;
44766;SDS011;30487;48.716;9.272;2023-11-21T07:45:52;5.55;;;0.93;;
44766;SDS011;30487;48.716;9.272;2023-11-21T07:48:17;0.80;;;0.40;;
44766;SDS011;30487;48.716;9.272;2023-11-21T07:50:43;1.05;;;0.57;;
44766;SDS011;30487;48.716;9.272;2023-11-21T07:53:08;2.17;;;0.57;;
44766;SDS011;30487;48.716;9.272;2023-11-21T07:55:34;0.80;;;0.40;;
44766;SDS011;30487;48.716;9.272;2023-11-21T07:58:01;1.35;;;0.40;;
44766;SDS011;30487;48.716;9.272;2023-11-21T08:00:26;0.80;;;0.40;;
44766;SDS011;30487;48.716;9.272;2023-11-21T08:02:55;1.13;;;0.50;;
44766;SDS011;30487;48.716;9.272;2023-11-21T08:05:20;1.30;;;0.50;;
44766;SDS011;30487;48.716;9.272;2023-11-21T08:07:46;1.23;;;0.50;;
44766;SDS011;30487;48.716;9.272;2023-11-21T08:10:12;2.10;;;0.60;;
44766;SDS011;30487;48.716;9.272;2023-11-21T08:12:37;2.45;;;0.77;;
44766;SDS011;30487;48.716;9.272;2023-11-21T08:15:03;1.77;;;0.60;;
44766;SDS011;30487;48.716;9.272;2023-11-21T08:17:30;1.40;;;0.52;;
44766;SDS011;30487;48.716;9.272;2023-11-21T08:19:57;5.55;;;0.73;;
44766;SDS011;30487;48.716;9.272;2023-11-21T08:22:23;2.70;;;0.63;;
44766;SDS011;30487;48.716;9.272;2023-11-21T08:24:50;1.17;;;0.60;;
44766;SDS011;30487;48.716;9.272;2023-11-21T08:27:15;1.58;;;0.50;;
44766;SDS011;30487;48.716;9.272;2023-11-21T08:29:41;1.67;;;0.60;;
44766;SDS011;30487;48.716;9.272;2023-11-21T08:32:07;3.80;;;0.70;;
44766;SDS011;30487;48.716;9.272;2023-11-21T08:34:33;1.90;;;0.60;;
44766;SDS011;30487;48.716;9.272;2023-11-21T08:36:58;2.40;;;0.57;;
44766;SDS011;30487;48.716;9.272;2023-11-21T08:39:25;1.95;;;0.80;;
44766;SDS011;30487;48.716;9.272;2023-11-21T08:41:51;1.50;;;0.80;;
44766;SDS011;30487;48.716;9.272;2023-11-21T08:44:17;0.77;;;0.47;;
44766;SDS011;30487;48.716;9.272;2023-11-21T08:46:45;2.08;;;0.50;;
44766;SDS011;30487;48.716;9.272;2023-11-21T08:49:12;0.95;;;0.40;;
44766;SDS011;30487;48.716;9.272;2023-11-21T08:51:38;0.90;;;0.60;;
44766;SDS011;30487;48.716;9.272;2023-11-21T08:54:04;1.42;;;0.60;;
44766;SDS011;30487;48.716;9.272;2023-11-21T08:56:33;3.25;;;0.77;;
44766;SDS011;30487;48.716;9.272;2023-11-21T08:58:59;1.15;;;0.40;;
44766;SDS011;30487;48.716;9.272;2023-11-21T09:01:27;1.67;;;0.57;;
44766;SDS011;30487;48.716;9.272;2023-11-21T09:03:53;3.97;;;0.77;;
44766;SDS011;30487;48.716;9.272;2023-11-21T09:06:19;0.88;;;0.55;;
44766;SDS011;30487;48.716;9.272;2023-11-21T09:08:44;4.25;;;0.75;;
44766;SDS011;30487;48.716;9.272;2023-11-21T09:11:10;3.28;;;0.82;;
44766;SDS011;30487;48.716;9.272;2023-11-21T09:13:35;1.20;;;0.60;;
44766;SDS011;30487;48.716;9.272;2023-11-21T09:16:01;1.27;;;0.55;;
44766;SDS011;30487;48.716;9.272;2023-11-21T09:18:27;1.83;;;0.73;;
44766;SDS011;30487;48.716;9.272;2023-11-21T09:20:53;2.13;;;0.70;;
44766;SDS011;30487;48.716;9.272;2023-11-21T09:23:18;1.08;;;0.60;;
44766;SDS011;30487;48.716;9.272;2023-11-21T09:25:44;2.00;;;0.75;;
44766;SDS011;30487;48.716;9.272;2023-11-21T09:28:11;1.50;;;0.70;;
44766;SDS011;30487;48.716;9.272;2023-11-21T09:30:37;2.38;;;0.70;;
44766;SDS011;30487;48.716;9.272;2023-11-21T09:33:03;1.10;;;0.50;;
44766;SDS011;30487;48.716;9.272;2023-11-21T09:35:33;1.45;;;0.73;;
44766;SDS011;30487;48.716;9.272;2023-11-21T09:37:59;1.33;;;0.52;;
44766;SDS011;30487;48.716;9.272;2023-11-21T09:40:26;2.00;;;0.77;;
44766;SDS011;30487;48.716;9.272;2023-11-21T09:42:56;2.05;;;0.68;;
44766;SDS011;30487;48.716;9.272;2023-11-21T09:45:28;4.55;;;0.70;;
44766;SDS011;30487;48.716;9.272;2023-11-21T09:47:59;1.38;;;0.60;;
44766;SDS011;30487;48.716;9.272;2023-11-21T09:50:25;2.15;;;0.70;;
44766;SDS011;30487;48.716;9.272;2023-11-21T09:55:22;2.17;;;0.60;;
44766;SDS011;30487;48.716;9.272;2023-11-21T09:57:55;1.70;;;0.60;;
44766;SDS011;30487;48.716;9.272;2023-11-21T10:00:22;1.00;;;0.60;;
44766;SDS011;30487;48.716;9.272;2023-11-21T10:02:49;0.93;;;0.60;;
44766;SDS011;30487;48.716;9.272;2023-11-21T10:05:14;1.95;;;0.63;;
44766;SDS011;30487;48.716;9.272;2023-11-21T10:07:42;3.17;;;0.77;;
44766;SDS011;30487;48.716;9.272;2023-11-21T10:10:09;0.73;;;0.52;;
44766;SDS011;30487;48.716;9.272;2023-11-21T10:12:36;1.17;;;0.60;;
44766;SDS011;30487;48.716;9.272;2023-11-21T10:15:03;2.95;;;0.70;;
44766;SDS011;30487;48.716;9.272;2023-11-21T10:17:35;1.48;;;0.70;;
44766;SDS011;30487;48.716;9.272;2023-11-21T10:20:08;2.30;;;0.50;;
44766;SDS011;30487;48.716;9.272;2023-11-21T10:22:37;0.85;;;0.60;;
44766;SDS011;30487;48.716;9.272;2023-11-21T10:25:07;2.40;;;0.60;;
44766;SDS011;30487;48.716;9.272;2023-11-21T10:27:39;2.15;;;0.50;;
44766;SDS011;30487;48.716;9.272;2023-11-21T10:30:06;1.50;;;0.52;;
44766;SDS011;30487;48.716;9.272;2023-11-21T10:32:36;1.85;;;0.73;;
44766;SDS011;30487;48.716;9.272;2023-11-21T10:35:03;1.10;;;0.52;;
44766;SDS011;30487;48.716;9.272;2023-11-21T10:37:38;1.85;;;0.70;;
44766;SDS011;30487;48.716;9.272;2023-11-21T10:40:07;2.00;;;0.60;;
44766;SDS011;30487;48.716;9.272;2023-11-21T10:42:37;2.05;;;0.50;;
44766;SDS011;30487;48.716;9.272;2023-11-21T10:45:06;1.98;;;0.80;;
44766;SDS011;30487;48.716;9.272;2023-11-21T10:47:39;1.08;;;0.60;;
44766;SDS011;30487;48.716;9.272;2023-11-21T10:50:06;3.08;;;0.77;;
44766;SDS011;30487;48.716;9.272;2023-11-21T10:52:36;2.35;;;0.60;;
44766;SDS011;30487;48.716;9.272;2023-11-21T10:55:15;1.58;;;0.60;;
44766;SDS011;30487;48.716;9.272;2023-11-21T10:57:42;1.38;;;0.50;;
44766;SDS011;30487;48.716;9.272;2023-11-21T11:00:11;1.10;;;0.60;;
44766;SDS011;30487;48.716;9.272;2023-11-21T11:02:38;1.50;;;0.55;;
44766;SDS011;30487;48.716;9.272;2023-11-21T11:05:04;0.63;;;0.35;;
44766;SDS011;30487;48.716;9.272;2023-11-21T11:07:31;1.05;;;0.43;;
44766;SDS011;30487;48.716;9.272;2023-11-21T11:09:59;1.13;;;0.30;;
44766;SDS011;30487;48.716;9.272;2023-11-21T11:12:25;0.88;;;0.40;;
44766;SDS011;30487;48.716;9.272;2023-11-21T11:14:51;0.50;;;0.35;;
44766;SDS011;30487;48.716;9.272;2023-11-21T11:17:18;1.25;;;0.50;;
44766;SDS011;30487;48.716;9.272;2023-11-21T11:19:47;1.73;;;0.40;;
44766;SDS011;30487;48.716;9.272;2023-11-21T11:22:17;0.50;;;0.30;;
44766;SDS011;30487;48.716;9.272;2023-11-21T11:37:17;0.50;;;0.30;;
44766;SDS011;30487;48.716;9.272;2023-11-21T11:39:45;0.45;;;0.30;;
44766;SDS011;30487;48.716;9.272;2023-11-21T11:42:14;1.48;;;0.45;;
44766;SDS011;30487;48.716;9.272;2023-11-21T11:55:05;1.23;;;0.50;;
44766;SDS011;30487;48.716;9.272;2023-11-21T11:57:35;2.17;;;0.50;;
44766;SDS011;30487;48.716;9.272;2023-11-21T12:02:48;1.33;;;0.40;;
44766;SDS011;30487;48.716;9.272;2023-11-21T12:05:16;1.48;;;0.43;;
44766;SDS011;30487;48.716;9.272;2023-11-21T12:07:51;1.58;;;0.50;;
44766;SDS011;30487;48.716;9.272;2023-11-21T12:10:25;0.70;;;0.40;;
44766;SDS011;30487;48.716;9.272;2023-11-21T12:12:56;1.15;;;0.47;;
44766;SDS011;30487;48.716;9.272;2023-11-21T12:15:23;0.88;;;0.40;;
44766;SDS011;30487;48.716;9.272;2023-11-21T12:17:50;1.30;;;0.55;;
44766;SDS011;30487;48.716;9.272;2023-11-21T12:20:21;1.52;;;0.47;;
44766;SDS011;30487;48.716;9.272;2023-11-21T12:22:51;1.00;;;0.50;;
44766;SDS011;30487;48.716;9.272;2023-11-21T12:25:18;0.50;;;0.32;;
44766;SDS011;30487;48.716;9.272;2023-11-21T12:27:50;2.10;;;0.55;;
44766;SDS011;30487;48.716;9.272;2023-11-21T12:30:17;0.77;;;0.43;;
44766;SDS011;30487;48.716;9.272;2023-11-21T12:32:45;1.35;;;0.50;;
44766;SDS011;30487;48.716;9.272;2023-11-21T12:35:13;1.67;;;0.57;;
44766;SDS011;30487;48.716;9.272;2023-11-21T12:37:39;1.33;;;0.50;;
44766;SDS011;30487;48.716;9.272;2023-11-21T12:40:09;1.40;;;0.70;;
44766;SDS011;30487;48.716;9.272;2023-11-21T12:42:39;1.13;;;0.70;;
44766;SDS011;30487;48.716;9.272;2023-11-21T12:47:42;2.92;;;1.10;;
44766;SDS011;30487;48.716;9.272;2023-11-21T12:50:09;3.00;;;1.00;;
44766;SDS011;30487;48.716;9.272;2023-11-21T12:52:42;2.08;;;1.00;;
44766;SDS011;30487;48.716;9.272;2023-11-21T12:55:13;2.05;;;0.93;;
44766;SDS011;30487;48.716;9.272;2023-11-21T12:57:43;4.47;;;1.30;;
44766;SDS011;30487;48.716;9.272;2023-11-21T13:00:10;4.00;;;1.60;;
44766;SDS011;30487;48.716;9.272;2023-11-21T13:02:50;2.85;;;1.55;;
44766;SDS011;30487;48.716;9.272;2023-11-21T13:05:26;5.32;;;1.58;;
44766;SDS011;30487;48.716;9.272;2023-11-21T13:07:53;4.32;;;1.58;;
44766;SDS011;30487;48.716;9.272;2023-11-21T13:10:27;3.80;;;1.30;;
44766;SDS011;30487;48.716;9.272;2023-11-21T13:12:55;4.10;;;1.53;;
44766;SDS011;30487;48.716;9.272;2023-11-21T13:15:23;3.20;;;1.42;;
44766;SDS011;30487;48.716;9.272;2023-11-21T13:17:49;3.05;;;1.20;;
44766;SDS011;30487;48.716;9.272;2023-11-21T13:20:16;2.20;;;1.40;;
44766;SDS011;30487;48.716;9.272;2023-11-21T13:22:46;2.03;;;1.20;;
44766;SDS011;30487;48.716;9.272;2023-11-21T13:25:20;3.65;;;1.50;;
44766;SDS011;30487;48.716;9.272;2023-11-21T13:27:46;2.88;;;1.08;;
44766;SDS011;30487;48.716;9.272;2023-11-21T13:30:13;2.75;;;1.10;;
44766;SDS011;30487;48.716;9.272;2023-11-21T13:32:48;2.58;;;1.00;;
44766;SDS011;30487;48.716;9.272;2023-11-21T13:35:16;1.35;;;0.70;;
44766;SDS011;30487;48.716;9.272;2023-11-21T13:37:51;1.92;;;0.90;;
44766;SDS011;30487;48.716;9.272;2023-11-21T13:40:21;2.15;;;1.00;;
44766;SDS011;30487;48.716;9.272;2023-11-21T13:42:51;2.15;;;1.05;;
44766;SDS011;30487;48.716;9.272;2023-11-21T13:45:23;2.33;;;0.80;;
44766;SDS011;30487;48.716;9.272;2023-11-21T13:47:50;2.03;;;1.00;;
44766;SDS011;30487;48.716;9.272;2023-11-21T13:50:17;1.45;;;0.80;;
44766;SDS011;30487;48.716;9.272;2023-11-21T13:52:47;1.70;;;0.80;;
44766;SDS011;30487;48.716;9.272;2023-11-21T13:55:14;1.38;;;0.75;;
44766;SDS011;30487;48.716;9.272;2023-11-21T13:57:44;1.50;;;0.88;;
44766;SDS011;30487;48.716;9.272;2023-11-21T14:00:12;2.20;;;1.00;;
44766;SDS011;30487;48.716;9.272;2023-11-21T14:02:58;2.35;;;1.00;;
44766;SDS011;30487;48.716;9.272;2023-11-21T14:05:27;3.17;;;1.27;;
44766;SDS011;30487;48.716;9.272;2023-11-21T14:07:57;2.70;;;1.00;;
44766;SDS011;30487;48.716;9.272;2023-11-21T14:10:31;1.85;;;0.80;;
44766;SDS011;30487;48.716;9.272;2023-11-21T14:13:05;1.80;;;0.85;;
44766;SDS011;30487;48.716;9.272;2023-11-21T14:15:31;2.08;;;0.90;;
44766;SDS011;30487;48.716;9.272;2023-11-21T14:17:58;1.67;;;0.73;;
44766;SDS011;30487;48.716;9.272;2023-11-21T14:20:32;2.63;;;0.70;;
44766;SDS011;30487;48.716;9.272;2023-11-21T14:22:58;1.08;;;0.77;;
44766;SDS011;30487;48.716;9.272;2023-11-21T14:25:24;1.63;;;0.88;;
44766;SDS011;30487;48.716;9.272;2023-11-21T14:27:49;1.23;;;0.80;;
44766;SDS011;30487;48.716;9.272;2023-11-21T14:30:15;2.42;;;1.02;;
44766;SDS011;30487;48.716;9.272;2023-11-21T14:32:44;1.95;;;0.80;;
44766;SDS011;30487;48.716;9.272;2023-11-21T14:35:09;2.33;;;1.10;;
44766;SDS011;30487;48.716;9.272;2023-11-21T14:37:35;2.20;;;1.00;;
44766;SDS011;30487;48.716;9.272;2023-11-21T14:40:01;7.38;;;2.25;;
44766;SDS011;30487;48.716;9.272;2023-11-21T14:42:29;11.23;;;4.32;;
44766;SDS011;30487;48.716;9.272;2023-11-21T14:44:55;25.00;;;8.98;;
44766;SDS011;30487;48.716;9.272;2023-11-21T14:47:25;25.45;;;9.38;;
44766;SDS011;30487;48.716;9.272;2023-11-21T14:49:52;25.45;;;10.10;;
44766;SDS011;30487;48.716;9.272;2023-11-21T14:52:18;26.55;;;9.65;;
44766;SDS011;30487;48.716;9.272;2023-11-21T14:54:56;24.77;;;9.32;;
44766;SDS011;30487;48.716;9.272;2023-11-21T14:57:42;18.05;;;7.22;;
44766;SDS011;30487;48.716;9.272;2023-11-21T15:00:14;12.27;;;5.03;;
44766;SDS011;30487;48.716;9.272;2023-11-21T15:03:01;10.20;;;4.30;;
44766;SDS011;30487;48.716;9.272;2023-11-21T15:05:28;8.43;;;3.78;;
44766;SDS011;30487;48.716;9.272;2023-11-21T15:07:54;6.05;;;2.83;;
44766;SDS011;30487;48.716;9.272;2023-11-21T15:10:22;6.90;;;2.30;;
44766;SDS011;30487;48.716;9.272;2023-11-21T15:13:03;4.80;;;2.25;;
44766;SDS011;30487;48.716;9.272;2023-11-21T15:15:29;4.53;;;2.10;;
44766;SDS011;30487;48.716;9.272;2023-11-21T15:17:57;4.18;;;2.00;;
44766;SDS011;30487;48.716;9.272;2023-11-21T15:20:22;3.20;;;1.63;;